sensor_id;sensor_type;location;lat;lon;timestamp;P1;durP1;ratioP1;P2;durP2;ratioP2
68509;SDS011;55512;50.102;19.958;2023-05-07T00:00:33;15.10;;;7.20;;
68509;SDS011;55512;50.102;19.958;2023-05-07T00:02:59;15.70;;;8.40;;
68509;SDS011;55512;50.102;19.958;2023-05-07T00:05:26;15.40;;;8.20;;
68509;SDS011;55512;50.102;19.958;2023-05-07T00:07:52;12.40;;;6.20;;
68509;SDS011;55512;50.102;19.958;2023-05-07T00:10:18;15.60;;;6.70;;
68509;SDS011;55512;50.102;19.958;2023-05-07T00:15:26;13.50;;;6.60;;
68509;SDS011;55512;50.102;19.958;2023-05-07T00:17:51;14.20;;;7.00;;
68509;SDS011;55512;50.102;19.958;2023-05-07T00:20:17;14.40;;;8.00;;
68509;SDS011;55512;50.102;19.958;2023-05-07T00:22:43;16.00;;;8.60;;
68509;SDS011;55512;50.102;19.958;2023-05-07T00:25:08;10.70;;;5.50;;
68509;SDS011;55512;50.102;19.958;2023-05-07T00:27:35;13.60;;;6.80;;
68509;SDS011;55512;50.102;19.958;2023-05-07T00:30:01;15.20;;;7.60;;
68509;SDS011;55512;50.102;19.958;2023-05-07T00:32:26;14.90;;;7.70;;
68509;SDS011;55512;50.102;19.958;2023-05-07T00:34:52;14.20;;;8.50;;
68509;SDS011;55512;50.102;19.958;2023-05-07T00:37:18;15.70;;;9.20;;
68509;SDS011;55512;50.102;19.958;2023-05-07T00:39:43;13.30;;;6.00;;
68509;SDS011;55512;50.102;19.958;2023-05-07T00:42:09;12.10;;;5.40;;
68509;SDS011;55512;50.102;19.958;2023-05-07T00:44:35;14.30;;;7.80;;
68509;SDS011;55512;50.102;19.958;2023-05-07T00:47:03;15.70;;;7.80;;
68509;SDS011;55512;50.102;19.958;2023-05-07T00:49:38;18.20;;;9.20;;
68509;SDS011;55512;50.102;19.958;2023-05-07T00:52:09;15.70;;;9.30;;
68509;SDS011;55512;50.102;19.958;2023-05-07T00:54:38;16.00;;;9.20;;
68509;SDS011;55512;50.102;19.958;2023-05-07T00:57:06;15.80;;;7.80;;
68509;SDS011;55512;50.102;19.958;2023-05-07T00:59:32;18.60;;;9.40;;
68509;SDS011;55512;50.102;19.958;2023-05-07T01:01:58;17.80;;;10.00;;
68509;SDS011;55512;50.102;19.958;2023-05-07T01:04:26;15.20;;;8.10;;
68509;SDS011;55512;50.102;19.958;2023-05-07T01:06:53;15.10;;;8.30;;
68509;SDS011;55512;50.102;19.958;2023-05-07T01:09:22;19.30;;;8.40;;
68509;SDS011;55512;50.102;19.958;2023-05-07T01:11:49;14.80;;;7.00;;
68509;SDS011;55512;50.102;19.958;2023-05-07T01:14:16;22.40;;;10.60;;
68509;SDS011;55512;50.102;19.958;2023-05-07T01:16:43;14.40;;;7.70;;
68509;SDS011;55512;50.102;19.958;2023-05-07T01:19:11;17.70;;;8.30;;
68509;SDS011;55512;50.102;19.958;2023-05-07T01:21:46;18.00;;;8.80;;
68509;SDS011;55512;50.102;19.958;2023-05-07T01:24:13;14.30;;;7.20;;
68509;SDS011;55512;50.102;19.958;2023-05-07T01:26:40;17.60;;;7.60;;
68509;SDS011;55512;50.102;19.958;2023-05-07T01:29:08;15.50;;;8.40;;
68509;SDS011;55512;50.102;19.958;2023-05-07T01:31:34;11.60;;;6.20;;
68509;SDS011;55512;50.102;19.958;2023-05-07T01:34:01;12.20;;;5.90;;
68509;SDS011;55512;50.102;19.958;2023-05-07T01:36:29;18.40;;;9.40;;
68509;SDS011;55512;50.102;19.958;2023-05-07T01:38:57;20.90;;;10.30;;
68509;SDS011;55512;50.102;19.958;2023-05-07T01:41:24;14.60;;;7.50;;
68509;SDS011;55512;50.102;19.958;2023-05-07T01:43:51;14.90;;;8.20;;
68509;SDS011;55512;50.102;19.958;2023-05-07T01:46:18;16.10;;;7.60;;
68509;SDS011;55512;50.102;19.958;2023-05-07T01:48:45;16.80;;;8.30;;
68509;SDS011;55512;50.102;19.958;2023-05-07T01:51:11;13.80;;;6.80;;
68509;SDS011;55512;50.102;19.958;2023-05-07T01:53:39;15.10;;;6.80;;
68509;SDS011;55512;50.102;19.958;2023-05-07T01:56:06;16.40;;;7.20;;
68509;SDS011;55512;50.102;19.958;2023-05-07T01:58:32;10.70;;;5.70;;
68509;SDS011;55512;50.102;19.958;2023-05-07T02:00:58;14.10;;;6.30;;
68509;SDS011;55512;50.102;19.958;2023-05-07T02:03:24;14.30;;;5.70;;
68509;SDS011;55512;50.102;19.958;2023-05-07T02:05:49;12.40;;;6.60;;
68509;SDS011;55512;50.102;19.958;2023-05-07T02:08:15;13.50;;;6.90;;
68509;SDS011;55512;50.102;19.958;2023-05-07T02:10:41;12.90;;;5.60;;
68509;SDS011;55512;50.102;19.958;2023-05-07T02:15:49;9.50;;;5.10;;
68509;SDS011;55512;50.102;19.958;2023-05-07T02:18:16;11.20;;;4.80;;
68509;SDS011;55512;50.102;19.958;2023-05-07T02:20:43;9.70;;;4.40;;
68509;SDS011;55512;50.102;19.958;2023-05-07T02:23:08;11.60;;;5.50;;
68509;SDS011;55512;50.102;19.958;2023-05-07T02:25:34;10.50;;;5.40;;
68509;SDS011;55512;50.102;19.958;2023-05-07T02:28:00;12.30;;;5.50;;
68509;SDS011;55512;50.102;19.958;2023-05-07T02:30:25;12.70;;;6.40;;
68509;SDS011;55512;50.102;19.958;2023-05-07T02:32:51;9.90;;;3.80;;
68509;SDS011;55512;50.102;19.958;2023-05-07T02:35:17;11.20;;;5.20;;
68509;SDS011;55512;50.102;19.958;2023-05-07T02:37:43;10.40;;;4.40;;
68509;SDS011;55512;50.102;19.958;2023-05-07T02:40:09;12.40;;;5.60;;
68509;SDS011;55512;50.102;19.958;2023-05-07T02:42:36;8.00;;;4.00;;
68509;SDS011;55512;50.102;19.958;2023-05-07T02:45:01;10.80;;;5.40;;
68509;SDS011;55512;50.102;19.958;2023-05-07T02:47:27;10.60;;;5.10;;
68509;SDS011;55512;50.102;19.958;2023-05-07T02:49:54;9.60;;;4.00;;
68509;SDS011;55512;50.102;19.958;2023-05-07T02:52:21;9.10;;;5.00;;
68509;SDS011;55512;50.102;19.958;2023-05-07T02:54:47;8.30;;;3.80;;
68509;SDS011;55512;50.102;19.958;2023-05-07T02:57:13;8.20;;;3.90;;
68509;SDS011;55512;50.102;19.958;2023-05-07T02:59:39;6.70;;;3.10;;
68509;SDS011;55512;50.102;19.958;2023-05-07T03:02:05;7.00;;;2.70;;
68509;SDS011;55512;50.102;19.958;2023-05-07T03:04:30;8.00;;;3.60;;
68509;SDS011;55512;50.102;19.958;2023-05-07T03:06:56;6.30;;;2.40;;
68509;SDS011;55512;50.102;19.958;2023-05-07T03:09:21;5.70;;;2.00;;
68509;SDS011;55512;50.102;19.958;2023-05-07T03:11:47;9.20;;;3.90;;
68509;SDS011;55512;50.102;19.958;2023-05-07T03:14:13;6.30;;;2.80;;
68509;SDS011;55512;50.102;19.958;2023-05-07T03:16:39;6.80;;;2.70;;
68509;SDS011;55512;50.102;19.958;2023-05-07T03:19:05;5.10;;;2.50;;
68509;SDS011;55512;50.102;19.958;2023-05-07T03:21:30;6.70;;;2.10;;
68509;SDS011;55512;50.102;19.958;2023-05-07T03:23:59;5.30;;;2.10;;
68509;SDS011;55512;50.102;19.958;2023-05-07T03:26:24;5.00;;;1.90;;
68509;SDS011;55512;50.102;19.958;2023-05-07T03:28:50;4.20;;;2.00;;
68509;SDS011;55512;50.102;19.958;2023-05-07T03:31:16;4.40;;;1.90;;
68509;SDS011;55512;50.102;19.958;2023-05-07T03:33:53;5.40;;;2.20;;
68509;SDS011;55512;50.102;19.958;2023-05-07T03:36:21;4.70;;;1.70;;
68509;SDS011;55512;50.102;19.958;2023-05-07T03:38:48;4.50;;;1.40;;
68509;SDS011;55512;50.102;19.958;2023-05-07T03:41:14;5.10;;;2.10;;
68509;SDS011;55512;50.102;19.958;2023-05-07T03:43:39;4.10;;;1.40;;
68509;SDS011;55512;50.102;19.958;2023-05-07T03:46:05;5.30;;;2.30;;
68509;SDS011;55512;50.102;19.958;2023-05-07T03:48:31;3.70;;;1.60;;
68509;SDS011;55512;50.102;19.958;2023-05-07T03:50:59;6.20;;;2.10;;
68509;SDS011;55512;50.102;19.958;2023-05-07T03:53:25;4.80;;;1.80;;
68509;SDS011;55512;50.102;19.958;2023-05-07T03:55:51;3.80;;;1.50;;
68509;SDS011;55512;50.102;19.958;2023-05-07T03:58:16;5.20;;;2.00;;
68509;SDS011;55512;50.102;19.958;2023-05-07T04:00:42;3.90;;;1.50;;
68509;SDS011;55512;50.102;19.958;2023-05-07T04:03:08;4.40;;;2.00;;
68509;SDS011;55512;50.102;19.958;2023-05-07T04:05:33;4.00;;;1.40;;
68509;SDS011;55512;50.102;19.958;2023-05-07T04:08:00;4.80;;;1.80;;
68509;SDS011;55512;50.102;19.958;2023-05-07T04:10:25;4.90;;;1.80;;
68509;SDS011;55512;50.102;19.958;2023-05-07T04:12:52;4.30;;;1.80;;
68509;SDS011;55512;50.102;19.958;2023-05-07T04:15:17;3.50;;;1.30;;
68509;SDS011;55512;50.102;19.958;2023-05-07T04:17:43;3.80;;;1.30;;
68509;SDS011;55512;50.102;19.958;2023-05-07T04:20:10;5.10;;;1.80;;
68509;SDS011;55512;50.102;19.958;2023-05-07T04:22:39;5.00;;;1.60;;
68509;SDS011;55512;50.102;19.958;2023-05-07T04:25:05;4.50;;;1.60;;
68509;SDS011;55512;50.102;19.958;2023-05-07T04:27:31;5.80;;;1.70;;
68509;SDS011;55512;50.102;19.958;2023-05-07T04:29:57;4.00;;;2.10;;
68509;SDS011;55512;50.102;19.958;2023-05-07T04:32:23;4.50;;;1.60;;
68509;SDS011;55512;50.102;19.958;2023-05-07T04:34:50;3.80;;;1.70;;
68509;SDS011;55512;50.102;19.958;2023-05-07T04:37:15;4.40;;;1.90;;
68509;SDS011;55512;50.102;19.958;2023-05-07T04:39:42;3.50;;;1.40;;
68509;SDS011;55512;50.102;19.958;2023-05-07T04:42:07;5.40;;;2.00;;
68509;SDS011;55512;50.102;19.958;2023-05-07T04:44:34;3.30;;;1.50;;
68509;SDS011;55512;50.102;19.958;2023-05-07T04:47:02;4.10;;;1.60;;
68509;SDS011;55512;50.102;19.958;2023-05-07T04:49:28;4.30;;;1.70;;
68509;SDS011;55512;50.102;19.958;2023-05-07T04:51:53;2.20;;;1.20;;
68509;SDS011;55512;50.102;19.958;2023-05-07T04:54:19;4.70;;;1.30;;
68509;SDS011;55512;50.102;19.958;2023-05-07T04:56:44;3.60;;;1.50;;
68509;SDS011;55512;50.102;19.958;2023-05-07T04:59:10;5.10;;;1.50;;
68509;SDS011;55512;50.102;19.958;2023-05-07T05:01:36;3.90;;;1.60;;
68509;SDS011;55512;50.102;19.958;2023-05-07T05:04:01;3.60;;;1.10;;
68509;SDS011;55512;50.102;19.958;2023-05-07T05:06:27;2.90;;;1.10;;
68509;SDS011;55512;50.102;19.958;2023-05-07T05:08:52;3.40;;;1.40;;
68509;SDS011;55512;50.102;19.958;2023-05-07T05:11:18;2.60;;;1.00;;
68509;SDS011;55512;50.102;19.958;2023-05-07T05:13:44;4.30;;;1.60;;
68509;SDS011;55512;50.102;19.958;2023-05-07T05:16:09;3.60;;;1.20;;
68509;SDS011;55512;50.102;19.958;2023-05-07T05:18:35;4.10;;;1.50;;
68509;SDS011;55512;50.102;19.958;2023-05-07T05:21:01;3.50;;;1.40;;
68509;SDS011;55512;50.102;19.958;2023-05-07T05:23:26;3.10;;;1.40;;
68509;SDS011;55512;50.102;19.958;2023-05-07T05:25:56;3.80;;;1.20;;
68509;SDS011;55512;50.102;19.958;2023-05-07T05:28:22;4.40;;;1.50;;
68509;SDS011;55512;50.102;19.958;2023-05-07T05:30:48;4.60;;;1.60;;
68509;SDS011;55512;50.102;19.958;2023-05-07T05:33:14;2.70;;;1.30;;
68509;SDS011;55512;50.102;19.958;2023-05-07T05:35:40;3.60;;;1.50;;
68509;SDS011;55512;50.102;19.958;2023-05-07T05:38:05;4.20;;;1.80;;
68509;SDS011;55512;50.102;19.958;2023-05-07T05:40:30;3.60;;;1.40;;
68509;SDS011;55512;50.102;19.958;2023-05-07T05:42:57;2.90;;;1.00;;
68509;SDS011;55512;50.102;19.958;2023-05-07T05:45:22;2.20;;;0.80;;
68509;SDS011;55512;50.102;19.958;2023-05-07T05:47:48;3.40;;;2.10;;
68509;SDS011;55512;50.102;19.958;2023-05-07T05:50:14;2.70;;;0.90;;
68509;SDS011;55512;50.102;19.958;2023-05-07T05:52:39;3.30;;;1.50;;
68509;SDS011;55512;50.102;19.958;2023-05-07T05:55:06;3.60;;;1.40;;
68509;SDS011;55512;50.102;19.958;2023-05-07T05:57:32;5.40;;;1.90;;
68509;SDS011;55512;50.102;19.958;2023-05-07T05:59:57;2.70;;;0.80;;
68509;SDS011;55512;50.102;19.958;2023-05-07T06:02:23;3.10;;;1.10;;
68509;SDS011;55512;50.102;19.958;2023-05-07T06:04:48;3.00;;;1.10;;
68509;SDS011;55512;50.102;19.958;2023-05-07T06:07:14;4.30;;;1.60;;
68509;SDS011;55512;50.102;19.958;2023-05-07T06:09:39;4.90;;;1.50;;
68509;SDS011;55512;50.102;19.958;2023-05-07T06:12:05;4.80;;;1.40;;
68509;SDS011;55512;50.102;19.958;2023-05-07T06:14:31;4.90;;;1.80;;
68509;SDS011;55512;50.102;19.958;2023-05-07T06:16:56;4.50;;;1.30;;
68509;SDS011;55512;50.102;19.958;2023-05-07T06:19:22;3.70;;;1.20;;
68509;SDS011;55512;50.102;19.958;2023-05-07T06:21:49;2.50;;;0.90;;
68509;SDS011;55512;50.102;19.958;2023-05-07T06:24:15;2.80;;;1.10;;
68509;SDS011;55512;50.102;19.958;2023-05-07T06:26:40;3.40;;;1.10;;
68509;SDS011;55512;50.102;19.958;2023-05-07T06:29:06;4.70;;;1.60;;
68509;SDS011;55512;50.102;19.958;2023-05-07T06:31:31;4.90;;;1.90;;
68509;SDS011;55512;50.102;19.958;2023-05-07T06:33:57;3.40;;;1.20;;
68509;SDS011;55512;50.102;19.958;2023-05-07T06:36:24;4.80;;;1.50;;
68509;SDS011;55512;50.102;19.958;2023-05-07T06:38:49;4.20;;;1.40;;
68509;SDS011;55512;50.102;19.958;2023-05-07T06:41:15;2.60;;;1.00;;
68509;SDS011;55512;50.102;19.958;2023-05-07T06:43:40;4.00;;;1.20;;
68509;SDS011;55512;50.102;19.958;2023-05-07T06:46:06;2.90;;;1.10;;
68509;SDS011;55512;50.102;19.958;2023-05-07T06:48:31;3.30;;;1.10;;
68509;SDS011;55512;50.102;19.958;2023-05-07T06:50:56;2.80;;;1.00;;
68509;SDS011;55512;50.102;19.958;2023-05-07T06:53:23;3.00;;;1.00;;
68509;SDS011;55512;50.102;19.958;2023-05-07T06:55:49;5.40;;;1.50;;
68509;SDS011;55512;50.102;19.958;2023-05-07T06:58:14;3.00;;;1.00;;
68509;SDS011;55512;50.102;19.958;2023-05-07T07:00:40;4.00;;;1.10;;
68509;SDS011;55512;50.102;19.958;2023-05-07T07:03:06;3.10;;;0.90;;
68509;SDS011;55512;50.102;19.958;2023-05-07T07:05:32;4.00;;;1.60;;
68509;SDS011;55512;50.102;19.958;2023-05-07T07:07:57;3.60;;;1.20;;
68509;SDS011;55512;50.102;19.958;2023-05-07T07:10:23;3.90;;;1.60;;
68509;SDS011;55512;50.102;19.958;2023-05-07T07:12:49;3.20;;;1.30;;
68509;SDS011;55512;50.102;19.958;2023-05-07T07:15:15;4.60;;;1.30;;
68509;SDS011;55512;50.102;19.958;2023-05-07T07:17:41;3.70;;;1.20;;
68509;SDS011;55512;50.102;19.958;2023-05-07T07:20:07;5.00;;;1.40;;
68509;SDS011;55512;50.102;19.958;2023-05-07T07:22:33;5.10;;;1.70;;
68509;SDS011;55512;50.102;19.958;2023-05-07T07:24:59;4.80;;;1.80;;
68509;SDS011;55512;50.102;19.958;2023-05-07T07:27:24;3.80;;;1.40;;
68509;SDS011;55512;50.102;19.958;2023-05-07T07:29:50;4.30;;;2.00;;
68509;SDS011;55512;50.102;19.958;2023-05-07T07:32:16;3.10;;;1.40;;
68509;SDS011;55512;50.102;19.958;2023-05-07T07:34:41;4.20;;;1.50;;
68509;SDS011;55512;50.102;19.958;2023-05-07T07:37:07;4.20;;;1.60;;
68509;SDS011;55512;50.102;19.958;2023-05-07T07:39:32;3.90;;;1.80;;
68509;SDS011;55512;50.102;19.958;2023-05-07T07:41:59;4.90;;;2.10;;
68509;SDS011;55512;50.102;19.958;2023-05-07T07:44:25;3.40;;;1.40;;
68509;SDS011;55512;50.102;19.958;2023-05-07T07:46:50;3.20;;;1.40;;
68509;SDS011;55512;50.102;19.958;2023-05-07T07:49:16;3.80;;;1.30;;
68509;SDS011;55512;50.102;19.958;2023-05-07T07:51:42;3.90;;;1.80;;
68509;SDS011;55512;50.102;19.958;2023-05-07T07:54:08;2.90;;;1.30;;
68509;SDS011;55512;50.102;19.958;2023-05-07T07:56:34;3.40;;;1.50;;
68509;SDS011;55512;50.102;19.958;2023-05-07T07:59:00;4.10;;;1.90;;
68509;SDS011;55512;50.102;19.958;2023-05-07T08:01:26;4.90;;;2.00;;
68509;SDS011;55512;50.102;19.958;2023-05-07T08:03:52;4.90;;;2.40;;
68509;SDS011;55512;50.102;19.958;2023-05-07T08:06:18;5.10;;;2.00;;
68509;SDS011;55512;50.102;19.958;2023-05-07T08:08:44;5.20;;;2.10;;
68509;SDS011;55512;50.102;19.958;2023-05-07T08:11:09;4.40;;;1.90;;
68509;SDS011;55512;50.102;19.958;2023-05-07T08:13:36;5.40;;;2.20;;
68509;SDS011;55512;50.102;19.958;2023-05-07T08:16:03;4.90;;;2.20;;
68509;SDS011;55512;50.102;19.958;2023-05-07T08:18:29;4.60;;;2.10;;
68509;SDS011;55512;50.102;19.958;2023-05-07T08:20:55;4.50;;;1.80;;
68509;SDS011;55512;50.102;19.958;2023-05-07T08:23:21;6.80;;;3.00;;
68509;SDS011;55512;50.102;19.958;2023-05-07T08:25:47;6.00;;;2.50;;
68509;SDS011;55512;50.102;19.958;2023-05-07T08:28:13;5.90;;;2.90;;
68509;SDS011;55512;50.102;19.958;2023-05-07T08:30:40;6.80;;;3.20;;
68509;SDS011;55512;50.102;19.958;2023-05-07T08:33:05;6.60;;;3.60;;
68509;SDS011;55512;50.102;19.958;2023-05-07T08:35:31;5.40;;;2.30;;
68509;SDS011;55512;50.102;19.958;2023-05-07T08:37:57;6.30;;;3.10;;
68509;SDS011;55512;50.102;19.958;2023-05-07T08:40:26;7.40;;;2.90;;
68509;SDS011;55512;50.102;19.958;2023-05-07T08:42:55;7.50;;;3.70;;
68509;SDS011;55512;50.102;19.958;2023-05-07T08:45:22;8.30;;;4.60;;
68509;SDS011;55512;50.102;19.958;2023-05-07T08:47:52;5.50;;;2.30;;
68509;SDS011;55512;50.102;19.958;2023-05-07T08:50:21;6.30;;;3.10;;
68509;SDS011;55512;50.102;19.958;2023-05-07T08:52:47;7.00;;;3.90;;
68509;SDS011;55512;50.102;19.958;2023-05-07T08:55:13;7.50;;;3.60;;
68509;SDS011;55512;50.102;19.958;2023-05-07T08:57:40;5.60;;;2.70;;
68509;SDS011;55512;50.102;19.958;2023-05-07T09:00:06;6.30;;;3.20;;
68509;SDS011;55512;50.102;19.958;2023-05-07T09:02:33;4.00;;;1.60;;
68509;SDS011;55512;50.102;19.958;2023-05-07T09:05:00;6.90;;;3.40;;
68509;SDS011;55512;50.102;19.958;2023-05-07T09:07:26;7.60;;;3.50;;
68509;SDS011;55512;50.102;19.958;2023-05-07T09:09:52;7.00;;;3.80;;
68509;SDS011;55512;50.102;19.958;2023-05-07T09:12:21;5.80;;;3.20;;
68509;SDS011;55512;50.102;19.958;2023-05-07T09:14:47;4.80;;;2.40;;
68509;SDS011;55512;50.102;19.958;2023-05-07T09:17:13;5.60;;;2.70;;
68509;SDS011;55512;50.102;19.958;2023-05-07T09:19:40;6.20;;;3.20;;
68509;SDS011;55512;50.102;19.958;2023-05-07T09:22:05;3.90;;;1.80;;
68509;SDS011;55512;50.102;19.958;2023-05-07T09:24:34;5.70;;;2.90;;
68509;SDS011;55512;50.102;19.958;2023-05-07T09:27:03;7.10;;;3.40;;
68509;SDS011;55512;50.102;19.958;2023-05-07T09:29:30;4.40;;;1.80;;
68509;SDS011;55512;50.102;19.958;2023-05-07T09:32:09;5.80;;;2.90;;
68509;SDS011;55512;50.102;19.958;2023-05-07T09:34:35;5.10;;;1.80;;
68509;SDS011;55512;50.102;19.958;2023-05-07T09:37:05;4.60;;;2.20;;
68509;SDS011;55512;50.102;19.958;2023-05-07T09:39:44;5.90;;;3.10;;
68509;SDS011;55512;50.102;19.958;2023-05-07T09:42:10;4.50;;;1.50;;
68509;SDS011;55512;50.102;19.958;2023-05-07T09:44:43;3.30;;;1.40;;
68509;SDS011;55512;50.102;19.958;2023-05-07T09:47:10;5.80;;;2.80;;
68509;SDS011;55512;50.102;19.958;2023-05-07T09:49:39;6.30;;;3.10;;
68509;SDS011;55512;50.102;19.958;2023-05-07T09:52:07;6.20;;;2.90;;
68509;SDS011;55512;50.102;19.958;2023-05-07T09:54:35;4.20;;;1.70;;
68509;SDS011;55512;50.102;19.958;2023-05-07T09:57:03;6.50;;;2.70;;
68509;SDS011;55512;50.102;19.958;2023-05-07T09:59:31;6.70;;;3.00;;
68509;SDS011;55512;50.102;19.958;2023-05-07T10:01:59;6.60;;;2.80;;
68509;SDS011;55512;50.102;19.958;2023-05-07T10:04:26;4.90;;;1.90;;
68509;SDS011;55512;50.102;19.958;2023-05-07T10:06:52;7.80;;;3.10;;
68509;SDS011;55512;50.102;19.958;2023-05-07T10:09:20;4.40;;;1.50;;
68509;SDS011;55512;50.102;19.958;2023-05-07T10:11:45;3.80;;;1.90;;
68509;SDS011;55512;50.102;19.958;2023-05-07T10:14:14;6.60;;;2.80;;
68509;SDS011;55512;50.102;19.958;2023-05-07T10:16:40;5.20;;;2.40;;
68509;SDS011;55512;50.102;19.958;2023-05-07T10:19:08;6.40;;;2.90;;
68509;SDS011;55512;50.102;19.958;2023-05-07T10:21:37;5.60;;;2.90;;
68509;SDS011;55512;50.102;19.958;2023-05-07T10:26:36;6.10;;;3.20;;
68509;SDS011;55512;50.102;19.958;2023-05-07T10:29:12;7.10;;;3.60;;
68509;SDS011;55512;50.102;19.958;2023-05-07T10:31:48;5.70;;;3.00;;
68509;SDS011;55512;50.102;19.958;2023-05-07T10:34:37;5.80;;;2.60;;
68509;SDS011;55512;50.102;19.958;2023-05-07T10:37:07;6.30;;;2.80;;
68509;SDS011;55512;50.102;19.958;2023-05-07T10:39:35;5.20;;;3.10;;
68509;SDS011;55512;50.102;19.958;2023-05-07T10:42:10;5.90;;;3.20;;
68509;SDS011;55512;50.102;19.958;2023-05-07T10:44:37;6.50;;;2.70;;
68509;SDS011;55512;50.102;19.958;2023-05-07T10:50:22;7.50;;;3.60;;
68509;SDS011;55512;50.102;19.958;2023-05-07T10:55:51;5.50;;;2.30;;
68509;SDS011;55512;50.102;19.958;2023-05-07T10:58:36;5.90;;;3.20;;
68509;SDS011;55512;50.102;19.958;2023-05-07T11:01:03;4.00;;;1.70;;
68509;SDS011;55512;50.102;19.958;2023-05-07T11:03:29;5.80;;;2.50;;
68509;SDS011;55512;50.102;19.958;2023-05-07T11:06:14;5.20;;;2.10;;
68509;SDS011;55512;50.102;19.958;2023-05-07T11:11:47;5.00;;;1.90;;
68509;SDS011;55512;50.102;19.958;2023-05-07T11:14:49;5.30;;;2.80;;
68509;SDS011;55512;50.102;19.958;2023-05-07T11:17:17;4.50;;;1.50;;
68509;SDS011;55512;50.102;19.958;2023-05-07T11:19:54;3.40;;;1.10;;
68509;SDS011;55512;50.102;19.958;2023-05-07T11:24:56;5.00;;;2.10;;
68509;SDS011;55512;50.102;19.958;2023-05-07T11:27:24;4.70;;;2.40;;
68509;SDS011;55512;50.102;19.958;2023-05-07T11:29:51;6.00;;;2.60;;
68509;SDS011;55512;50.102;19.958;2023-05-07T11:32:26;4.20;;;1.90;;
68509;SDS011;55512;50.102;19.958;2023-05-07T11:34:54;4.10;;;1.70;;
68509;SDS011;55512;50.102;19.958;2023-05-07T11:37:21;3.60;;;1.60;;
68509;SDS011;55512;50.102;19.958;2023-05-07T11:39:48;4.00;;;2.00;;
68509;SDS011;55512;50.102;19.958;2023-05-07T11:42:36;3.70;;;1.40;;
68509;SDS011;55512;50.102;19.958;2023-05-07T11:45:04;4.50;;;1.90;;
68509;SDS011;55512;50.102;19.958;2023-05-07T11:47:34;4.10;;;1.60;;
68509;SDS011;55512;50.102;19.958;2023-05-07T11:50:05;5.00;;;2.00;;
68509;SDS011;55512;50.102;19.958;2023-05-07T11:52:32;5.00;;;2.50;;
68509;SDS011;55512;50.102;19.958;2023-05-07T11:55:00;4.90;;;2.30;;
68509;SDS011;55512;50.102;19.958;2023-05-07T11:57:27;4.30;;;1.90;;
68509;SDS011;55512;50.102;19.958;2023-05-07T11:59:58;5.10;;;1.70;;
68509;SDS011;55512;50.102;19.958;2023-05-07T12:02:25;4.50;;;1.90;;
68509;SDS011;55512;50.102;19.958;2023-05-07T12:04:54;3.90;;;1.90;;
68509;SDS011;55512;50.102;19.958;2023-05-07T12:07:20;4.60;;;2.00;;
68509;SDS011;55512;50.102;19.958;2023-05-07T12:09:47;4.80;;;2.20;;
68509;SDS011;55512;50.102;19.958;2023-05-07T12:12:13;5.20;;;2.00;;
68509;SDS011;55512;50.102;19.958;2023-05-07T12:14:45;4.10;;;1.80;;
68509;SDS011;55512;50.102;19.958;2023-05-07T12:17:12;4.30;;;2.00;;
68509;SDS011;55512;50.102;19.958;2023-05-07T12:19:41;5.40;;;2.00;;
68509;SDS011;55512;50.102;19.958;2023-05-07T12:22:08;3.60;;;1.80;;
68509;SDS011;55512;50.102;19.958;2023-05-07T12:24:45;5.40;;;2.20;;
68509;SDS011;55512;50.102;19.958;2023-05-07T12:27:20;3.20;;;1.20;;
68509;SDS011;55512;50.102;19.958;2023-05-07T12:29:49;4.40;;;1.90;;
68509;SDS011;55512;50.102;19.958;2023-05-07T12:32:17;5.10;;;2.00;;
68509;SDS011;55512;50.102;19.958;2023-05-07T12:34:44;4.90;;;2.10;;
68509;SDS011;55512;50.102;19.958;2023-05-07T12:37:11;4.80;;;2.20;;
68509;SDS011;55512;50.102;19.958;2023-05-07T12:39:37;5.50;;;2.20;;
68509;SDS011;55512;50.102;19.958;2023-05-07T12:42:03;5.40;;;2.50;;
68509;SDS011;55512;50.102;19.958;2023-05-07T12:44:33;6.70;;;2.30;;
68509;SDS011;55512;50.102;19.958;2023-05-07T12:47:03;4.60;;;2.00;;
68509;SDS011;55512;50.102;19.958;2023-05-07T12:49:29;4.70;;;2.10;;
68509;SDS011;55512;50.102;19.958;2023-05-07T12:51:54;4.90;;;2.20;;
68509;SDS011;55512;50.102;19.958;2023-05-07T12:54:37;4.20;;;2.10;;
68509;SDS011;55512;50.102;19.958;2023-05-07T12:57:07;5.50;;;2.20;;
68509;SDS011;55512;50.102;19.958;2023-05-07T12:59:36;4.90;;;2.10;;
68509;SDS011;55512;50.102;19.958;2023-05-07T13:02:03;4.30;;;1.90;;
68509;SDS011;55512;50.102;19.958;2023-05-07T13:04:29;5.10;;;2.20;;
68509;SDS011;55512;50.102;19.958;2023-05-07T13:06:54;3.30;;;1.50;;
68509;SDS011;55512;50.102;19.958;2023-05-07T13:09:20;3.70;;;1.80;;
68509;SDS011;55512;50.102;19.958;2023-05-07T13:11:45;4.30;;;1.70;;
68509;SDS011;55512;50.102;19.958;2023-05-07T13:14:11;4.30;;;2.00;;
68509;SDS011;55512;50.102;19.958;2023-05-07T13:16:37;4.70;;;2.50;;
68509;SDS011;55512;50.102;19.958;2023-05-07T13:19:03;5.30;;;1.90;;
68509;SDS011;55512;50.102;19.958;2023-05-07T13:21:29;6.60;;;2.40;;
68509;SDS011;55512;50.102;19.958;2023-05-07T13:23:56;5.00;;;2.10;;
68509;SDS011;55512;50.102;19.958;2023-05-07T13:26:23;4.60;;;2.00;;
68509;SDS011;55512;50.102;19.958;2023-05-07T13:28:49;5.40;;;2.60;;
68509;SDS011;55512;50.102;19.958;2023-05-07T13:31:14;5.20;;;2.30;;
68509;SDS011;55512;50.102;19.958;2023-05-07T13:33:39;3.60;;;1.30;;
68509;SDS011;55512;50.102;19.958;2023-05-07T13:36:05;5.40;;;2.40;;
68509;SDS011;55512;50.102;19.958;2023-05-07T13:38:31;6.00;;;2.50;;
68509;SDS011;55512;50.102;19.958;2023-05-07T13:40:57;5.70;;;2.40;;
68509;SDS011;55512;50.102;19.958;2023-05-07T13:43:24;4.00;;;1.70;;
68509;SDS011;55512;50.102;19.958;2023-05-07T13:45:50;4.60;;;2.20;;
68509;SDS011;55512;50.102;19.958;2023-05-07T13:48:15;5.10;;;2.30;;
68509;SDS011;55512;50.102;19.958;2023-05-07T13:50:41;5.50;;;2.00;;
68509;SDS011;55512;50.102;19.958;2023-05-07T13:53:07;6.00;;;2.40;;
68509;SDS011;55512;50.102;19.958;2023-05-07T13:55:33;6.50;;;2.40;;
68509;SDS011;55512;50.102;19.958;2023-05-07T13:58:00;6.10;;;2.60;;
68509;SDS011;55512;50.102;19.958;2023-05-07T14:00:28;6.50;;;2.80;;
68509;SDS011;55512;50.102;19.958;2023-05-07T14:02:55;5.40;;;2.70;;
68509;SDS011;55512;50.102;19.958;2023-05-07T14:05:22;5.10;;;2.10;;
68509;SDS011;55512;50.102;19.958;2023-05-07T14:07:54;5.60;;;2.50;;
68509;SDS011;55512;50.102;19.958;2023-05-07T14:10:20;6.50;;;2.80;;
68509;SDS011;55512;50.102;19.958;2023-05-07T14:12:46;5.00;;;2.50;;
68509;SDS011;55512;50.102;19.958;2023-05-07T14:15:12;6.20;;;2.90;;
68509;SDS011;55512;50.102;19.958;2023-05-07T14:17:38;7.50;;;2.70;;
68509;SDS011;55512;50.102;19.958;2023-05-07T14:20:04;6.10;;;2.90;;
68509;SDS011;55512;50.102;19.958;2023-05-07T14:22:33;8.20;;;4.60;;
68509;SDS011;55512;50.102;19.958;2023-05-07T14:24:58;11.70;;;5.60;;
68509;SDS011;55512;50.102;19.958;2023-05-07T14:27:24;8.80;;;3.80;;
68509;SDS011;55512;50.102;19.958;2023-05-07T14:29:49;5.50;;;2.80;;
68509;SDS011;55512;50.102;19.958;2023-05-07T14:32:19;6.20;;;3.20;;
68509;SDS011;55512;50.102;19.958;2023-05-07T14:34:45;5.60;;;2.60;;
68509;SDS011;55512;50.102;19.958;2023-05-07T14:37:11;5.90;;;2.60;;
68509;SDS011;55512;50.102;19.958;2023-05-07T14:39:37;5.70;;;2.70;;
68509;SDS011;55512;50.102;19.958;2023-05-07T14:42:03;5.80;;;2.70;;
68509;SDS011;55512;50.102;19.958;2023-05-07T14:44:29;5.90;;;2.80;;
68509;SDS011;55512;50.102;19.958;2023-05-07T14:46:55;5.10;;;2.20;;
68509;SDS011;55512;50.102;19.958;2023-05-07T14:49:20;5.90;;;2.80;;